Terminal Aerodrome Forecast
Issued by NWS

Home | Current Version | Previous Version | Text Only | Print | Product List | Glossary On
Versions: 1 2 3 4 5 6 7 8 9 10 11 12 13 14 15 16 17 18 19 20
000
FTUS41 KBTV 021738
TAFRUT
TAF
KRUT 021738Z 0218/0318 10005KT P6SM SCT025 BKN035
      TEMPO 0218/0220 BKN025
     FM030700 12004KT 3SM BR SCT040 BKN120
     FM031200 11004KT P6SM FEW025 SCT120
      AMD LTD TO CLD VIS AND WIND=

USA.gov is the U.S. government's official web portal to all federal, state and local government web resources and services.